Time;durP1;ratioP1;P1;durP2;ratioP2;P2;SDS_P1;SDS_P2;PMS_P1;PMS_P2;Temp;Humidity;BMP_temperature;BMP_pressure;BME280_temperature;BME280_humidity;BME280_pressure;Samples;Min_cycle;Max_cycle;Signal;HPM_P1;HPM_P2
2024/02/15 00:00:38;;;;;;;;;;;;;;;;;;1907213;28;7004;-65
2024/02/15 00:01:36;;;;;;;;;;;;;;;;;;1905256;28;7279;-64
2024/02/15 00:02:33;;;;;;;;;;;;;;;;;;1903862;28;7104;-65
2024/02/15 00:03:31;;;;;;;;;;;;;;;;;;1903803;28;7122;-63
2024/02/15 00:04:28;;;;;;;;;;;;;;;;;;1907579;28;7029;-64
2024/02/15 00:05:26;;;;;;;;;;;;;;;;;;1908245;28;7007;-65
2024/02/15 00:06:23;;;;;;;;;;;;;;;;;;1903500;28;7228;-66
2024/02/15 00:07:22;;;;;;;;;;;;;;;;;;1908443;28;7046;-65
2024/02/15 00:08:21;;;;;;;;;;;;;;;;;;1903343;28;7014;-66
2024/02/15 00:09:18;;;;;;;;;;;;;;;;;;1911873;28;7116;-66
2024/02/15 00:10:16;;;;;;;;;;;;;;;;;;1903088;28;7016;-65
2024/02/15 00:11:13;;;;;;;;;;;;;;;;;;1904248;28;7122;-64
2024/02/15 00:12:11;;;;;;;;;;;;;;;;;;1905227;28;7012;-64
2024/02/15 00:13:10;;;;;;;;;;;;;;;;;;1909885;28;7019;-64
2024/02/15 00:14:07;;;;;;;;;;;;;;;;;;1903285;28;7029;-65
2024/02/15 00:15:05;;;;;;;;;;;;;;;;;;1907249;28;7151;-67
2024/02/15 00:16:03;;;;;;;;;;;;;;;;;;1911342;28;7099;-65
2024/02/15 00:17:00;;;;;;;;;;;;;;;;;;1904311;28;7011;-66
2024/02/15 00:17:58;;;;;;;;;;;;;;;;;;1904096;28;7127;-64
2024/02/15 00:18:56;;;;;;;;;;;;;;;;;;1903832;28;7038;-65
2024/02/15 00:19:54;;;;;;;;;;;;;;;;;;1905608;28;7318;-66
2024/02/15 00:20:52;;;;;;;;;;;;;;;;;;1910197;28;7095;-68
2024/02/15 00:21:49;;;;;;;;;;;;;;;;;;1910943;28;7093;-64
2024/02/15 00:22:47;;;;;;;;;;;;;;;;;;1911654;28;8005;-64
2024/02/15 00:23:45;;;;;;;;;;;;;;;;;;1903880;28;7011;-66
2024/02/15 00:24:43;;;;;;;;;;;;;;;;;;1909398;28;7010;-64
2024/02/15 00:25:43;;;;;;;;;;;;;;;;;;1903667;28;7047;-66
2024/02/15 00:26:42;;;;;;;;;;;;;;;;;;1903224;28;7149;-65
2024/02/15 00:27:39;;;;;;;;;;;;;;;;;;1904074;28;7041;-67
2024/02/15 00:28:37;;;;;;;;;;;;;;;;;;1903958;28;7991;-64
2024/02/15 00:29:35;;;;;;;;;;;;;;;;;;1911321;28;7004;-66
2024/02/15 00:30:32;;;;;;;;;;;;;;;;;;1912124;28;7118;-64
2024/02/15 00:31:30;;;;;;;;;;;;;;;;;;1908551;28;7136;-65
2024/02/15 00:32:27;;;;;;;;;;;;;;;;;;1905119;28;7024;-66
2024/02/15 00:33:25;;;;;;;;;;;;;;;;;;1908420;28;7340;-67
2024/02/15 00:34:26;;;;;;;;;;;;;;;;;;1912065;28;7035;-66
2024/02/15 00:35:24;;;;;;;;;;;;;;;;;;1912333;28;7007;-66
2024/02/15 00:36:23;;;;;;;;;;;;;;;;;;1912046;28;7116;-64
2024/02/15 00:37:20;;;;;;;;;;;;;;;;;;1905042;28;7104;-67
2024/02/15 00:38:18;;;;;;;;;;;;;;;;;;1905328;28;7008;-65
2024/02/15 00:39:18;;;;;;;;;;;;;;;;;;1904355;28;7020;-65
2024/02/15 00:40:16;;;;;;;;;;;;;;;;;;1905544;28;7029;-65
2024/02/15 00:41:13;;;;;;;;;;;;;;;;;;1908663;28;7028;-66
2024/02/15 00:42:10;;;;;;;;;;;;;;;;;;1910787;28;7126;-65
2024/02/15 00:43:08;;;;;;;;;;;;;;;;;;1911557;28;7028;-65
2024/02/15 00:44:05;;;;;;;;;;;;;;;;;;1912627;28;7087;-66
2024/02/15 00:45:04;;;;;;;;;;;;;;;;;;1912596;28;7032;-65
2024/02/15 00:46:02;;;;;;;;;;;;;;;;;;1912202;28;7087;-65
2024/02/15 00:46:59;;;;;;;;;;;;;;;;;;1912762;28;7086;-65
2024/02/15 00:47:57;;;;;;;;;;;;;;;;;;1912899;28;7147;-66
2024/02/15 00:48:55;;;;;;;;;;;;;;;;;;1906376;28;7103;-66
2024/02/15 00:49:53;;;;;;;;;;;;;;;;;;1910358;28;7048;-65
2024/02/15 00:50:51;;;;;;;;;;;;;;;;;;1912718;28;7095;-65
2024/02/15 00:51:48;;;;;;;;;;;;;;;;;;1913110;28;7032;-65
2024/02/15 00:52:46;;;;;;;;;;;;;;;;;;1903859;28;7034;-64
2024/02/15 00:53:43;;;;;;;;;;;;;;;;;;1908256;28;8501;-66
2024/02/15 00:54:41;;;;;;;;;;;;;;;;;;1905232;28;7048;-65
2024/02/15 00:55:38;;;;;;;;;;;;;;;;;;1904920;28;7107;-66
2024/02/15 00:56:36;;;;;;;;;;;;;;;;;;1904873;28;7008;-64
2024/02/15 00:57:33;;;;;;;;;;;;;;;;;;1906329;28;7130;-64
2024/02/15 00:58:31;;;;;;;;;;;;;;;;;;1912513;28;7008;-66
2024/02/15 00:59:28;;;;;;;;;;;;;;;;;;1912230;28;7119;-65
2024/02/15 01:00:26;;;;;;;;;;;;;;;;;;1912654;28;7086;-65
2024/02/15 01:01:23;;;;;;;;;;;;;;;;;;1912052;28;7087;-64
2024/02/15 01:02:21;;;;;;;;;;;;;;;;;;1909136;28;7020;-65
2024/02/15 01:03:19;;;;;;;;;;;;;;;;;;1912428;28;7427;-64
2024/02/15 01:04:17;;;;;;;;;;;;;;;;;;1912503;28;7020;-65
2024/02/15 01:05:15;;;;;;;;;;;;;;;;;;1911981;28;7011;-64
2024/02/15 01:06:13;;;;;;;;;;;;;;;;;;1910829;28;8388;-66
2024/02/15 01:07:10;;;;;;;;;;;;;;;;;;1913119;28;7119;-65
2024/02/15 01:08:08;;;;;;;;;;;;;;;;;;1912927;28;7007;-64
2024/02/15 01:09:08;;;;;;;;;;;;;;;;;;1912175;28;7134;-66
2024/02/15 01:10:06;;;;;;;;;;;;;;;;;;1912473;28;7318;-65
2024/02/15 01:11:04;;;;;;;;;;;;;;;;;;1912717;28;7004;-64
2024/02/15 01:12:03;;;;;;;;;;;;;;;;;;1908734;28;8355;-65
2024/02/15 01:13:01;;;;;;;;;;;;;;;;;;1912296;28;7087;-65
2024/02/15 01:13:58;;;;;;;;;;;;;;;;;;1911637;28;7003;-65
2024/02/15 01:14:56;;;;;;;;;;;;;;;;;;1913023;28;7128;-66
2024/02/15 01:15:54;;;;;;;;;;;;;;;;;;1904854;28;7045;-66
2024/02/15 01:16:51;;;;;;;;;;;;;;;;;;1908906;28;10777;-67
2024/02/15 01:17:49;;;;;;;;;;;;;;;;;;1912062;28;8039;-67
2024/02/15 01:18:47;;;;;;;;;;;;;;;;;;1911930;28;7214;-65
2024/02/15 01:19:45;;;;;;;;;;;;;;;;;;1912701;28;7105;-65
2024/02/15 01:20:42;;;;;;;;;;;;;;;;;;1912571;28;7116;-64
2024/02/15 01:21:40;;;;;;;;;;;;;;;;;;1912961;28;7013;-64
2024/02/15 01:22:37;;;;;;;;;;;;;;;;;;1906836;28;7100;-65
2024/02/15 01:23:36;;;;;;;;;;;;;;;;;;1909441;28;7124;-66
2024/02/15 01:24:34;;;;;;;;;;;;;;;;;;1911567;28;7129;-64
2024/02/15 01:25:31;;;;;;;;;;;;;;;;;;1904176;28;8060;-64
2024/02/15 01:26:32;;;;;;;;;;;;;;;;;;1902803;28;7017;-66
2024/02/15 01:27:29;;;;;;;;;;;;;;;;;;1907155;28;7346;-65
2024/02/15 01:28:27;;;;;;;;;;;;;;;;;;1906161;28;8123;-65
2024/02/15 01:29:25;;;;;;;;;;;;;;;;;;1908865;28;7033;-64
2024/02/15 01:30:23;;;;;;;;;;;;;;;;;;1912089;28;7013;-66
2024/02/15 01:31:20;;;;;;;;;;;;;;;;;;1908461;28;8022;-68
2024/02/15 01:32:17;;;;;;;;;;;;;;;;;;1908749;28;7165;-67
2024/02/15 01:33:15;;;;;;;;;;;;;;;;;;1904979;28;7044;-64
2024/02/15 01:34:13;;;;;;;;;;;;;;;;;;1908633;28;7045;-65
2024/02/15 01:35:10;;;;;;;;;;;;;;;;;;1911695;28;8035;-66
2024/02/15 01:36:08;;;;;;;;;;;;;;;;;;1912150;28;7052;-66
2024/02/15 01:37:05;;;;;;;;;;;;;;;;;;1904977;28;8351;-64
2024/02/15 01:38:03;;;;;;;;;;;;;;;;;;1903663;28;7016;-65
2024/02/15 01:39:01;;;;;;;;;;;;;;;;;;1904307;28;7304;-65
2024/02/15 01:40:01;;;;;;;;;;;;;;;;;;1904211;28;7127;-65
2024/02/15 01:40:58;;;;;;;;;;;;;;;;;;1904088;28;7142;-64
2024/02/15 01:41:56;;;;;;;;;;;;;;;;;;1908840;28;7414;-65
2024/02/15 01:42:54;;;;;;;;;;;;;;;;;;1903946;28;7140;-64
2024/02/15 01:43:52;;;;;;;;;;;;;;;;;;1907901;28;7148;-65
2024/02/15 01:44:50;;;;;;;;;;;;;;;;;;1906168;28;7086;-66
2024/02/15 01:45:48;;;;;;;;;;;;;;;;;;1911018;28;7061;-64
2024/02/15 01:46:47;;;;;;;;;;;;;;;;;;1912705;28;7034;-65
2024/02/15 01:47:45;;;;;;;;;;;;;;;;;;1905902;28;7009;-65
2024/02/15 01:48:43;;;;;;;;;;;;;;;;;;1903109;28;7043;-63
2024/02/15 01:49:41;;;;;;;;;;;;;;;;;;1904289;28;7163;-66
2024/02/15 01:50:39;;;;;;;;;;;;;;;;;;1909672;28;7012;-65
2024/02/15 01:51:37;;;;;;;;;;;;;;;;;;1912596;28;7297;-67
2024/02/15 01:52:34;;;;;;;;;;;;;;;;;;1903579;28;7219;-64
2024/02/15 01:53:32;;;;;;;;;;;;;;;;;;1911427;28;7289;-64
2024/02/15 01:54:31;;;;;;;;;;;;;;;;;;1909362;28;7138;-66
2024/02/15 01:55:29;;;;;;;;;;;;;;;;;;1904720;28;7024;-65
2024/02/15 01:56:27;;;;;;;;;;;;;;;;;;1906051;28;8322;-66
2024/02/15 01:57:25;;;;;;;;;;;;;;;;;;1911147;28;7012;-64
2024/02/15 01:58:25;;;;;;;;;;;;;;;;;;1906619;28;7091;-64
2024/02/15 01:59:22;;;;;;;;;;;;;;;;;;1904404;28;7149;-65
2024/02/15 02:00:21;;;;;;;;;;;;;;;;;;1903937;28;7012;-65
2024/02/15 02:01:18;;;;;;;;;;;;;;;;;;1904603;28;7020;-65
2024/02/15 02:02:18;;;;;;;;;;;;;;;;;;1903709;28;7142;-65
2024/02/15 02:03:16;;;;;;;;;;;;;;;;;;1903290;28;7010;-64
2024/02/15 02:04:15;;;;;;;;;;;;;;;;;;1906638;28;7016;-66
2024/02/15 02:05:13;;;;;;;;;;;;;;;;;;1912335;28;7108;-66
2024/02/15 02:06:11;;;;;;;;;;;;;;;;;;1908978;28;7409;-66
2024/02/15 02:07:09;;;;;;;;;;;;;;;;;;1905174;28;8135;-66
2024/02/15 02:08:09;;;;;;;;;;;;;;;;;;1904078;28;7020;-63
2024/02/15 02:09:16;;;;;;;;;;;;;;;;;;1910304;28;7147;-64
2024/02/15 02:10:15;;;;;;;;;;;;;;;;;;1911715;28;7162;-65
2024/02/15 02:11:12;;;;;;;;;;;;;;;;;;1911882;28;7008;-64
2024/02/15 02:12:11;;;;;;;;;;;;;;;;;;1908936;28;7047;-66
2024/02/15 02:13:09;;;;;;;;;;;;;;;;;;1903912;28;8027;-64
2024/02/15 02:14:07;;;;;;;;;;;;;;;;;;1904684;28;7041;-65
2024/02/15 02:15:06;;;;;;;;;;;;;;;;;;1904798;28;7096;-65
2024/02/15 02:16:04;;;;;;;;;;;;;;;;;;1907671;28;7083;-65
2024/02/15 02:17:12;;;;;;;;;;;;;;;;;;1905580;28;7131;-65
2024/02/15 02:18:10;;;;;;;;;;;;;;;;;;1911519;28;7008;-66
2024/02/15 02:19:09;;;;;;;;;;;;;;;;;;1905029;28;7122;-65
2024/02/15 02:20:08;;;;;;;;;;;;;;;;;;1908011;28;7044;-65
2024/02/15 02:21:05;;;;;;;;;;;;;;;;;;1904440;28;8014;-63
2024/02/15 02:22:05;;;;;;;;;;;;;;;;;;1904159;28;7053;-65
2024/02/15 02:23:15;;;;;;;;;;;;;;;;;;1904843;28;7388;-63
2024/02/15 02:24:14;;;;;;;;;;;;;;;;;;1904638;28;8114;-65
2024/02/15 02:25:13;;;;;;;;;;;;;;;;;;1904533;28;7064;-66
2024/02/15 02:26:10;;;;;;;;;;;;;;;;;;1904846;28;8102;-66
2024/02/15 02:27:10;;;;;;;;;;;;;;;;;;1903615;28;7138;-65
2024/02/15 02:28:08;;;;;;;;;;;;;;;;;;1907632;28;7021;-65
2024/02/15 02:29:07;;;;;;;;;;;;;;;;;;1905085;28;7052;-64
2024/02/15 02:30:10;;;;;;;;;;;;;;;;;;1911582;28;7040;-64
2024/02/15 02:31:10;;;;;;;;;;;;;;;;;;1906246;28;8020;-66
2024/02/15 02:32:07;;;;;;;;;;;;;;;;;;1904163;28;7345;-65
2024/02/15 02:33:07;;;;;;;;;;;;;;;;;;1904928;28;7027;-65
2024/02/15 02:34:06;;;;;;;;;;;;;;;;;;1904652;28;7011;-65
2024/02/15 02:35:07;;;;;;;;;;;;;;;;;;1908207;28;7144;-65
2024/02/15 02:36:09;;;;;;;;;;;;;;;;;;1909997;28;7137;-66
2024/02/15 02:37:07;;;;;;;;;;;;;;;;;;1911908;28;7006;-65
2024/02/15 02:38:05;;;;;;;;;;;;;;;;;;1907687;28;7047;-65
2024/02/15 02:39:02;;;;;;;;;;;;;;;;;;1904787;28;7004;-65
2024/02/15 02:40:00;;;;;;;;;;;;;;;;;;1911512;28;7088;-64
2024/02/15 02:40:58;;;;;;;;;;;;;;;;;;1908078;28;7087;-66
2024/02/15 02:41:55;;;;;;;;;;;;;;;;;;1903966;28;7109;-65
2024/02/15 02:42:58;;;;;;;;;;;;;;;;;;1903710;28;7007;-66
2024/02/15 02:43:57;;;;;;;;;;;;;;;;;;1904421;28;7181;-66
2024/02/15 02:44:54;;;;;;;;;;;;;;;;;;1905799;28;8074;-64
2024/02/15 02:45:52;;;;;;;;;;;;;;;;;;1906069;28;7115;-65
2024/02/15 02:46:49;;;;;;;;;;;;;;;;;;1903150;28;7088;-65
2024/02/15 02:47:49;;;;;;;;;;;;;;;;;;1904067;28;7227;-65
2024/02/15 02:48:50;;;;;;;;;;;;;;;;;;1904322;28;7009;-65
2024/02/15 02:49:48;;;;;;;;;;;;;;;;;;1904497;28;7130;-65
2024/02/15 02:50:46;;;;;;;;;;;;;;;;;;1903840;28;7092;-65
2024/02/15 02:51:43;;;;;;;;;;;;;;;;;;1903948;28;7335;-65
2024/02/15 02:52:40;;;;;;;;;;;;;;;;;;1904281;28;7082;-67
2024/02/15 02:53:38;;;;;;;;;;;;;;;;;;1910058;28;7041;-65
2024/02/15 02:54:35;;;;;;;;;;;;;;;;;;1910259;28;7012;-65
2024/02/15 02:55:33;;;;;;;;;;;;;;;;;;1905040;28;7044;-65
2024/02/15 02:56:31;;;;;;;;;;;;;;;;;;1904716;28;7105;-65
2024/02/15 02:57:29;;;;;;;;;;;;;;;;;;1910281;28;7041;-64
2024/02/15 02:58:26;;;;;;;;;;;;;;;;;;1905427;28;7116;-66
2024/02/15 02:59:25;;;;;;;;;;;;;;;;;;1903843;28;7298;-66
2024/02/15 03:00:22;;;;;;;;;;;;;;;;;;1905935;28;7012;-65
2024/02/15 03:01:22;;;;;;;;;;;;;;;;;;1904250;28;7008;-65
2024/02/15 03:02:22;;;;;;;;;;;;;;;;;;1902582;28;7125;-65
2024/02/15 03:03:20;;;;;;;;;;;;;;;;;;1903517;28;7098;-65
2024/02/15 03:04:17;;;;;;;;;;;;;;;;;;1904035;28;7016;-65
2024/02/15 03:05:15;;;;;;;;;;;;;;;;;;1904397;28;7983;-67
2024/02/15 03:06:12;;;;;;;;;;;;;;;;;;1904644;28;7138;-66
2024/02/15 03:07:10;;;;;;;;;;;;;;;;;;1910139;28;7332;-65
2024/02/15 03:08:13;;;;;;;;;;;;;;;;;;1903783;28;7154;-65
2024/02/15 03:09:14;;;;;;;;;;;;;;;;;;1903824;28;7013;-65
2024/02/15 03:10:13;;;;;;;;;;;;;;;;;;1906773;28;7123;-66
2024/02/15 03:11:12;;;;;;;;;;;;;;;;;;1903607;28;7095;-65
2024/02/15 03:12:09;;;;;;;;;;;;;;;;;;1904176;28;7022;-64
2024/02/15 03:13:13;;;;;;;;;;;;;;;;;;1918258;28;6806;-66
2024/02/15 03:14:12;;;;;;;;;;;;;;;;;;1916553;28;7017;-64
2024/02/15 03:15:11;;;;;;;;;;;;;;;;;;1910525;28;8293;-65
2024/02/15 03:16:09;;;;;;;;;;;;;;;;;;1909907;28;7007;-66
2024/02/15 03:17:06;;;;;;;;;;;;;;;;;;1910617;28;7007;-66
2024/02/15 03:18:08;;;;;;;;;;;;;;;;;;1910440;28;7050;-66
2024/02/15 03:19:06;;;;;;;;;;;;;;;;;;1914614;28;7043;-65
2024/02/15 03:20:10;;;;;;;;;;;;;;;;;;1914923;28;8065;-67
2024/02/15 03:21:10;;;;;;;;;;;;;;;;;;1910617;28;7007;-66
2024/02/15 03:22:08;;;;;;;;;;;;;;;;;;1910507;28;7008;-66
2024/02/15 03:23:05;;;;;;;;;;;;;;;;;;1910250;28;7138;-66
2024/02/15 03:24:03;;;;;;;;;;;;;;;;;;1916400;28;7537;-66
2024/02/15 03:25:00;;;;;;;;;;;;;;;;;;1917222;28;7076;-66
2024/02/15 03:25:57;;;;;;;;;;;;;;;;;;1913736;28;7103;-66
2024/02/15 03:26:55;;;;;;;;;;;;;;;;;;1910755;28;7227;-64
2024/02/15 03:27:55;;;;;;;;;;;;;;;;;;1910179;28;7146;-66
2024/02/15 03:28:53;;;;;;;;;;;;;;;;;;1910441;28;7024;-66
2024/02/15 03:29:52;;;;;;;;;;;;;;;;;;1910020;28;7044;-67
2024/02/15 03:30:50;;;;;;;;;;;;;;;;;;1909551;28;7100;-66
2024/02/15 03:31:47;;;;;;;;;;;;;;;;;;1914501;28;7089;-66
2024/02/15 03:32:48;;;;;;;;;;;;;;;;;;1917059;28;7014;-66
2024/02/15 03:33:47;;;;;;;;;;;;;;;;;;1909503;28;7008;-65
2024/02/15 03:34:45;;;;;;;;;;;;;;;;;;1909409;28;7010;-66
2024/02/15 03:35:42;;;;;;;;;;;;;;;;;;1910125;28;8050;-65
2024/02/15 03:36:40;;;;;;;;;;;;;;;;;;1909391;28;8689;-66
2024/02/15 03:37:39;;;;;;;;;;;;;;;;;;1909741;28;7046;-66
2024/02/15 03:38:36;;;;;;;;;;;;;;;;;;1912991;28;7006;-67
2024/02/15 03:39:34;;;;;;;;;;;;;;;;;;1916855;28;7007;-66
2024/02/15 03:40:32;;;;;;;;;;;;;;;;;;1912589;28;7014;-66
2024/02/15 03:41:32;;;;;;;;;;;;;;;;;;1917538;28;7080;-68
2024/02/15 03:42:30;;;;;;;;;;;;;;;;;;1917493;28;7098;-65
2024/02/15 03:43:28;;;;;;;;;;;;;;;;;;1916024;28;7103;-66
2024/02/15 03:44:25;;;;;;;;;;;;;;;;;;1915097;28;7048;-66
2024/02/15 03:45:24;;;;;;;;;;;;;;;;;;1909002;28;7013;-67
2024/02/15 03:46:23;;;;;;;;;;;;;;;;;;1910516;28;7011;-67
2024/02/15 03:47:21;;;;;;;;;;;;;;;;;;1909739;28;8131;-66
2024/02/15 03:48:18;;;;;;;;;;;;;;;;;;1909691;28;7345;-66
2024/02/15 03:49:19;;;;;;;;;;;;;;;;;;1910167;28;7099;-67
2024/02/15 03:50:18;;;;;;;;;;;;;;;;;;1913233;28;7016;-65
2024/02/15 03:51:18;;;;;;;;;;;;;;;;;;1918633;28;7043;-67
2024/02/15 03:52:16;;;;;;;;;;;;;;;;;;1914781;28;7016;-66
2024/02/15 03:53:13;;;;;;;;;;;;;;;;;;1911284;28;7107;-66
2024/02/15 03:54:11;;;;;;;;;;;;;;;;;;1917237;28;7048;-66
2024/02/15 03:55:09;;;;;;;;;;;;;;;;;;1917136;28;8037;-66
2024/02/15 03:56:06;;;;;;;;;;;;;;;;;;1910087;28;7045;-66
2024/02/15 03:57:06;;;;;;;;;;;;;;;;;;1910117;28;7146;-67
2024/02/15 03:58:03;;;;;;;;;;;;;;;;;;1910693;28;7123;-66
2024/02/15 03:59:04;;;;;;;;;;;;;;;;;;1915704;28;7095;-67
2024/02/15 04:00:01;;;;;;;;;;;;;;;;;;1924138;28;7011;-65
2024/02/15 04:00:59;;;;;;;;;;;;;;;;;;1931530;28;7257;-65
2024/02/15 04:01:57;;;;;;;;;;;;;;;;;;1931822;28;7008;-67
2024/02/15 04:02:54;;;;;;;;;;;;;;;;;;1919629;28;7031;-66
2024/02/15 04:03:53;;;;;;;;;;;;;;;;;;1914411;28;7119;-65
2024/02/15 04:04:52;;;;;;;;;;;;;;;;;;1909690;28;7049;-67
2024/02/15 04:05:50;;;;;;;;;;;;;;;;;;1909469;28;7111;-65
2024/02/15 04:06:48;;;;;;;;;;;;;;;;;;1910484;28;7047;-65
2024/02/15 04:07:46;;;;;;;;;;;;;;;;;;1909868;28;8448;-66
2024/02/15 04:08:43;;;;;;;;;;;;;;;;;;1909708;28;7052;-66
2024/02/15 04:09:41;;;;;;;;;;;;;;;;;;1909510;28;8057;-67
2024/02/15 04:10:39;;;;;;;;;;;;;;;;;;1910297;28;8059;-66
2024/02/15 04:11:37;;;;;;;;;;;;;;;;;;1916496;28;7007;-67
2024/02/15 04:12:35;;;;;;;;;;;;;;;;;;1917514;28;7012;-67
2024/02/15 04:13:33;;;;;;;;;;;;;;;;;;1918017;28;7107;-65
2024/02/15 04:14:32;;;;;;;;;;;;;;;;;;1916988;28;7094;-67
2024/02/15 04:15:29;;;;;;;;;;;;;;;;;;1916881;28;7086;-66
2024/02/15 04:16:28;;;;;;;;;;;;;;;;;;1913297;28;7045;-66
2024/02/15 04:17:26;;;;;;;;;;;;;;;;;;1913076;28;7024;-66
2024/02/15 04:18:23;;;;;;;;;;;;;;;;;;1908782;28;7028;-65
2024/02/15 04:19:21;;;;;;;;;;;;;;;;;;1911869;28;7012;-65
2024/02/15 04:20:19;;;;;;;;;;;;;;;;;;1917698;28;7044;-66
2024/02/15 04:21:19;;;;;;;;;;;;;;;;;;1916793;28;7009;-66
2024/02/15 04:22:17;;;;;;;;;;;;;;;;;;1909174;28;7008;-64
2024/02/15 04:23:14;;;;;;;;;;;;;;;;;;1913252;28;7121;-65
2024/02/15 04:24:12;;;;;;;;;;;;;;;;;;1914057;28;7028;-65
2024/02/15 04:25:10;;;;;;;;;;;;;;;;;;1908486;28;8073;-65
2024/02/15 04:26:08;;;;;;;;;;;;;;;;;;1904459;28;7008;-66
2024/02/15 04:27:13;;;;;;;;;;;;;;;;;;1905473;28;7104;-65
2024/02/15 04:28:11;;;;;;;;;;;;;;;;;;1905127;28;7009;-66
2024/02/15 04:29:10;;;;;;;;;;;;;;;;;;1912897;28;7290;-65
2024/02/15 04:30:08;;;;;;;;;;;;;;;;;;1907678;28;7088;-65
2024/02/15 04:31:08;;;;;;;;;;;;;;;;;;1903668;28;7127;-66
2024/02/15 04:32:09;;;;;;;;;;;;;;;;;;1903250;28;7013;-65
2024/02/15 04:33:08;;;;;;;;;;;;;;;;;;1904513;28;7331;-65
2024/02/15 04:34:06;;;;;;;;;;;;;;;;;;1905062;28;7038;-65
2024/02/15 04:35:05;;;;;;;;;;;;;;;;;;1904807;28;7049;-66
2024/02/15 04:36:06;;;;;;;;;;;;;;;;;;1905088;28;7088;-67
2024/02/15 04:37:07;;;;;;;;;;;;;;;;;;1904902;28;7011;-65
2024/02/15 04:38:04;;;;;;;;;;;;;;;;;;1909901;28;7119;-65
2024/02/15 04:39:04;;;;;;;;;;;;;;;;;;1911701;28;7872;-67
2024/02/15 04:40:09;;;;;;;;;;;;;;;;;;1911801;28;7016;-65
2024/02/15 04:41:09;;;;;;;;;;;;;;;;;;1909954;28;7011;-66
2024/02/15 04:42:11;;;;;;;;;;;;;;;;;;1911688;28;7013;-64
2024/02/15 04:43:08;;;;;;;;;;;;;;;;;;1911047;28;7011;-65
2024/02/15 04:44:09;;;;;;;;;;;;;;;;;;1909655;28;7043;-65
2024/02/15 04:45:12;;;;;;;;;;;;;;;;;;1904082;28;7052;-66
2024/02/15 04:46:10;;;;;;;;;;;;;;;;;;1918734;28;7804;-66
2024/02/15 04:47:08;;;;;;;;;;;;;;;;;;1919612;28;7037;-66
2024/02/15 04:48:07;;;;;;;;;;;;;;;;;;1908536;28;8121;-67
2024/02/15 04:49:06;;;;;;;;;;;;;;;;;;1912270;28;7155;-67
2024/02/15 04:50:05;;;;;;;;;;;;;;;;;;1912684;28;7004;-66
2024/02/15 04:51:03;;;;;;;;;;;;;;;;;;1902941;28;7523;-64
2024/02/15 04:52:03;;;;;;;;;;;;;;;;;;1905327;28;7009;-66
2024/02/15 04:53:01;;;;;;;;;;;;;;;;;;1904096;28;7141;-65
2024/02/15 04:54:01;;;;;;;;;;;;;;;;;;1904486;28;7118;-66
2024/02/15 04:54:59;;;;;;;;;;;;;;;;;;1904572;28;7012;-66
2024/02/15 04:55:56;;;;;;;;;;;;;;;;;;1904526;28;7009;-66
2024/02/15 04:56:54;;;;;;;;;;;;;;;;;;1904847;28;7012;-66
2024/02/15 04:57:54;;;;;;;;;;;;;;;;;;1908536;28;7100;-65
2024/02/15 04:58:53;;;;;;;;;;;;;;;;;;1918638;28;7021;-66
2024/02/15 04:59:51;;;;;;;;;;;;;;;;;;1918392;28;7092;-65
2024/02/15 05:00:53;;;;;;;;;;;;;;;;;;1907725;28;7326;-65
2024/02/15 05:01:51;;;;;;;;;;;;;;;;;;1913394;28;7037;-66
2024/02/15 05:02:49;;;;;;;;;;;;;;;;;;1918758;28;8061;-67
2024/02/15 05:03:47;;;;;;;;;;;;;;;;;;1912883;28;8064;-66
2024/02/15 05:04:44;;;;;;;;;;;;;;;;;;1903346;28;7007;-67
2024/02/15 05:05:42;;;;;;;;;;;;;;;;;;1904229;28;7125;-66
2024/02/15 05:06:40;;;;;;;;;;;;;;;;;;1904592;28;8050;-66
2024/02/15 05:07:39;;;;;;;;;;;;;;;;;;1904728;28;7004;-66
2024/02/15 05:08:42;;;;;;;;;;;;;;;;;;1905246;28;7024;-66
2024/02/15 05:09:40;;;;;;;;;;;;;;;;;;1910116;28;7103;-66
2024/02/15 05:10:37;;;;;;;;;;;;;;;;;;1910051;28;7008;-66
2024/02/15 05:11:46;;;;;;;;;;;;;;;;;;1905410;28;7040;-67
2024/02/15 05:12:43;;;;;;;;;;;;;;;;;;1904470;28;8098;-67
2024/02/15 05:13:41;;;;;;;;;;;;;;;;;;1905112;28;7012;-66
2024/02/15 05:14:38;;;;;;;;;;;;;;;;;;1912909;28;7095;-66
2024/02/15 05:15:37;;;;;;;;;;;;;;;;;;1912253;28;7235;-66
2024/02/15 05:16:34;;;;;;;;;;;;;;;;;;1911546;28;7124;-66
2024/02/15 05:17:33;;;;;;;;;;;;;;;;;;1912173;28;7281;-66
2024/02/15 05:18:31;;;;;;;;;;;;;;;;;;1912102;28;7008;-65
2024/02/15 05:19:30;;;;;;;;;;;;;;;;;;1912743;28;7007;-66
2024/02/15 05:20:28;;;;;;;;;;;;;;;;;;1908950;28;7110;-66
2024/02/15 05:21:25;;;;;;;;;;;;;;;;;;1904997;28;7088;-66
2024/02/15 05:22:23;;;;;;;;;;;;;;;;;;1904424;28;7012;-66
2024/02/15 05:23:20;;;;;;;;;;;;;;;;;;1904492;28;7197;-66
2024/02/15 05:24:17;;;;;;;;;;;;;;;;;;1905060;28;7007;-64
2024/02/15 05:25:15;;;;;;;;;;;;;;;;;;1905261;28;7039;-66
2024/02/15 05:26:15;;;;;;;;;;;;;;;;;;1905518;28;7099;-67
2024/02/15 05:27:12;;;;;;;;;;;;;;;;;;1905052;28;7119;-65
2024/02/15 05:28:10;;;;;;;;;;;;;;;;;;1904385;28;8040;-65
2024/02/15 05:29:08;;;;;;;;;;;;;;;;;;1911491;28;8017;-66
2024/02/15 05:30:06;;;;;;;;;;;;;;;;;;1912467;28;8052;-65
2024/02/15 05:31:16;;;;;;;;;;;;;;;;;;1912962;28;7011;-65
2024/02/15 05:32:17;;;;;;;;;;;;;;;;;;1903420;28;7004;-66
2024/02/15 05:33:14;;;;;;;;;;;;;;;;;;1904540;28;7053;-66
2024/02/15 05:34:12;;;;;;;;;;;;;;;;;;1904552;28;7176;-66
2024/02/15 05:35:11;;;;;;;;;;;;;;;;;;1912911;28;7095;-65
2024/02/15 05:36:08;;;;;;;;;;;;;;;;;;1911870;28;7108;-65
2024/02/15 05:37:06;;;;;;;;;;;;;;;;;;1911929;28;7097;-66
2024/02/15 05:38:06;;;;;;;;;;;;;;;;;;1912046;28;7016;-66
2024/02/15 05:39:04;;;;;;;;;;;;;;;;;;1911708;28;7009;-66
2024/02/15 05:40:02;;;;;;;;;;;;;;;;;;1911637;28;7020;-65
2024/02/15 05:41:00;;;;;;;;;;;;;;;;;;1911982;28;8025;-65
2024/02/15 05:42:00;;;;;;;;;;;;;;;;;;1912092;28;7972;-66
2024/02/15 05:43:01;;;;;;;;;;;;;;;;;;1912661;28;7197;-66
2024/02/15 05:43:59;;;;;;;;;;;;;;;;;;1912735;28;7092;-67
2024/02/15 05:45:16;;;;;;;;;;;;;;;;;;1910742;28;7011;-66
2024/02/15 05:46:14;;;;;;;;;;;;;;;;;;1908230;28;7000;-65
2024/02/15 05:47:12;;;;;;;;;;;;;;;;;;1904933;28;7207;-66
2024/02/15 05:48:12;;;;;;;;;;;;;;;;;;1904245;28;7087;-65
2024/02/15 05:49:15;;;;;;;;;;;;;;;;;;1911775;28;7144;-65
2024/02/15 05:50:15;;;;;;;;;;;;;;;;;;1912045;28;7115;-66
2024/02/15 05:51:12;;;;;;;;;;;;;;;;;;1911794;28;7295;-66
2024/02/15 05:52:11;;;;;;;;;;;;;;;;;;1907958;28;7008;-66
2024/02/15 05:53:08;;;;;;;;;;;;;;;;;;1904143;28;7028;-67
2024/02/15 05:54:05;;;;;;;;;;;;;;;;;;1904937;28;7003;-64
2024/02/15 05:55:03;;;;;;;;;;;;;;;;;;1904474;28;7119;-67
2024/02/15 05:56:04;;;;;;;;;;;;;;;;;;1906598;28;7036;-66
2024/02/15 05:57:01;;;;;;;;;;;;;;;;;;1904858;28;7111;-66
2024/02/15 05:58:02;;;;;;;;;;;;;;;;;;1904092;28;7110;-65
2024/02/15 05:59:02;;;;;;;;;;;;;;;;;;1907554;28;7056;-67
2024/02/15 06:00:02;;;;;;;;;;;;;;;;;;1911649;28;7004;-65
2024/02/15 06:01:13;;;;;;;;;;;;;;;;;;1911706;28;7095;-65
2024/02/15 06:02:11;;;;;;;;;;;;;;;;;;1911756;28;7011;-66
2024/02/15 06:03:09;;;;;;;;;;;;;;;;;;1903692;28;7061;-67
2024/02/15 06:04:08;;;;;;;;;;;;;;;;;;1908893;28;7292;-67
2024/02/15 06:05:06;;;;;;;;;;;;;;;;;;1911923;28;7049;-66
2024/02/15 06:06:07;;;;;;;;;;;;;;;;;;1912086;28;7711;-66
2024/02/15 06:07:06;;;;;;;;;;;;;;;;;;1906819;28;7008;-65
2024/02/15 06:08:04;;;;;;;;;;;;;;;;;;1904705;28;7091;-66
2024/02/15 06:09:02;;;;;;;;;;;;;;;;;;1911118;28;7020;-64
2024/02/15 06:10:04;;;;;;;;;;;;;;;;;;1906998;28;7099;-66
2024/02/15 06:11:02;;;;;;;;;;;;;;;;;;1907697;28;7111;-66
2024/02/15 06:11:59;;;;;;;;;;;;;;;;;;1912247;28;7096;-66
2024/02/15 06:13:00;;;;;;;;;;;;;;;;;;1904916;28;7020;-66
2024/02/15 06:13:58;;;;;;;;;;;;;;;;;;1904696;28;7095;-66
2024/02/15 06:14:55;;;;;;;;;;;;;;;;;;1904062;28;7017;-65
2024/02/15 06:15:53;;;;;;;;;;;;;;;;;;1904135;28;7036;-66
2024/02/15 06:16:52;;;;;;;;;;;;;;;;;;1911481;28;7363;-65
2024/02/15 06:17:49;;;;;;;;;;;;;;;;;;1912331;28;7008;-66
2024/02/15 06:18:47;;;;;;;;;;;;;;;;;;1904370;28;7044;-65
2024/02/15 06:19:45;;;;;;;;;;;;;;;;;;1904581;28;7128;-64
2024/02/15 06:20:45;;;;;;;;;;;;;;;;;;1904011;28;7007;-66
2024/02/15 06:21:43;;;;;;;;;;;;;;;;;;1904163;28;7028;-66
2024/02/15 06:22:41;;;;;;;;;;;;;;;;;;1904275;28;7216;-66
2024/02/15 06:23:39;;;;;;;;;;;;;;;;;;1904522;28;7044;-66
2024/02/15 06:24:36;;;;;;;;;;;;;;;;;;1903319;28;7022;-65
2024/02/15 06:25:36;;;;;;;;;;;;;;;;;;1903856;28;7045;-66
2024/02/15 06:26:34;;;;;;;;;;;;;;;;;;1904928;28;7088;-65
2024/02/15 06:27:32;;;;;;;;;;;;;;;;;;1911231;28;7092;-66
2024/02/15 06:40:10;;;;;;;;;;;;;;;;;;1911713;28;7024;-66
2024/02/15 06:41:08;;;;;;;;;;;;;;;;;;1912229;28;7413;-66
2024/02/15 06:42:11;;;;;;;;;;;;;;;;;;1912063;28;7251;-65
2024/02/15 06:43:10;;;;;;;;;;;;;;;;;;1904825;28;7112;-66
2024/02/15 06:44:07;;;;;;;;;;;;;;;;;;1904069;28;7007;-66
2024/02/15 06:45:07;;;;;;;;;;;;;;;;;;1903587;28;7012;-66
2024/02/15 06:46:10;;;;;;;;;;;;;;;;;;1904518;28;8054;-66
2024/02/15 06:47:10;;;;;;;;;;;;;;;;;;1905367;28;8049;-66
2024/02/15 06:48:08;;;;;;;;;;;;;;;;;;1903738;28;7123;-66
2024/02/15 06:49:05;;;;;;;;;;;;;;;;;;1904661;28;7026;-66
2024/02/15 06:50:03;;;;;;;;;;;;;;;;;;1910247;28;7111;-64
2024/02/15 06:51:03;;;;;;;;;;;;;;;;;;1903780;28;7296;-65
2024/02/15 06:52:02;;;;;;;;;;;;;;;;;;1904084;28;7010;-66
2024/02/15 06:52:59;;;;;;;;;;;;;;;;;;1903097;28;7017;-65
2024/02/15 06:53:57;;;;;;;;;;;;;;;;;;1904176;28;8046;-66
2024/02/15 06:54:55;;;;;;;;;;;;;;;;;;1904075;28;7004;-65
2024/02/15 06:55:53;;;;;;;;;;;;;;;;;;1914121;28;7037;-66
2024/02/15 06:56:54;;;;;;;;;;;;;;;;;;1902504;28;7007;-65
2024/02/15 06:57:51;;;;;;;;;;;;;;;;;;1903875;28;7012;-67
2024/02/15 06:58:50;;;;;;;;;;;;;;;;;;1904542;28;7028;-66